createdAt,value
2022-10-17T00:00:07.547Z,94.36
2022-10-17T00:02:34.176Z,94.59
2022-10-17T00:05:00.846Z,94.19
2022-10-17T00:07:27.640Z,93.67
2022-10-17T00:09:54.505Z,93.98
2022-10-17T00:12:21.132Z,94.15
2022-10-17T00:14:47.841Z,93.88
2022-10-17T00:17:15.700Z,93.63
2022-10-17T00:19:42.497Z,93.41
2022-10-17T00:22:09.101Z,93.61
2022-10-17T00:24:35.731Z,93.13
2022-10-17T00:27:02.413Z,92.55
2022-10-17T00:29:29.195Z,92.62
2022-10-17T00:31:57.297Z,92.89
2022-10-17T00:34:25.148Z,93.28
2022-10-17T00:36:51.779Z,93.34
2022-10-17T00:39:18.421Z,92.93
2022-10-17T00:41:45.059Z,92.48
2022-10-17T00:44:30.020Z,92.25
2022-10-17T00:47:04.358Z,91.79
2022-10-17T00:49:34.161Z,92.23
2022-10-17T00:52:03.732Z,92.94
2022-10-17T00:54:37.904Z,93.05
2022-10-17T00:57:05.001Z,92.75
2022-10-17T00:59:33.485Z,92.06
2022-10-17T01:02:04.001Z,92.25
2022-10-17T01:04:30.867Z,91.79
2022-10-17T01:06:57.469Z,91.70
2022-10-17T01:09:25.225Z,91.90
2022-10-17T01:12:07.036Z,91.78
2022-10-17T01:14:51.726Z,91.79
2022-10-17T01:17:24.270Z,91.29
2022-10-17T01:20:22.518Z,92.40
2022-10-17T01:23:10.667Z,93.54
2022-10-17T01:25:40.192Z,93.84
2022-10-17T01:28:37.307Z,93.64
2022-10-17T01:31:09.782Z,92.87
2022-10-17T01:33:49.196Z,92.83
2022-10-17T01:36:41.916Z,93.09
2022-10-17T01:39:24.266Z,93.64
2022-10-17T01:41:57.996Z,92.61
2022-10-17T01:44:58.652Z,93.29
2022-10-17T01:47:29.671Z,92.80
2022-10-17T01:50:01.182Z,92.63
2022-10-17T01:52:39.052Z,92.89
2022-10-17T01:55:11.854Z,92.44
2022-10-17T01:57:41.902Z,92.29
2022-10-17T02:00:14.752Z,92.11
2022-10-17T02:02:44.136Z,92.14
2022-10-17T02:05:10.781Z,92.05
2022-10-17T02:07:37.430Z,92.80
2022-10-17T02:10:11.177Z,92.48
2022-10-17T02:13:22.157Z,92.67
2022-10-17T02:16:06.862Z,92.63
2022-10-17T02:18:53.742Z,92.56
2022-10-17T02:21:25.499Z,92.30
2022-10-17T02:24:04.989Z,92.27
2022-10-17T02:26:44.929Z,93.07
2022-10-17T02:29:19.937Z,92.77
2022-10-17T02:31:50.182Z,92.59
2022-10-17T02:34:24.705Z,93.33
2022-10-17T02:36:55.276Z,93.96
2022-10-17T02:39:23.869Z,93.92
2022-10-17T02:41:51.402Z,93.58
2022-10-17T02:44:18.318Z,93.19
2022-10-17T02:46:49.774Z,93.33
2022-10-17T02:49:32.021Z,92.55
2022-10-17T02:52:18.153Z,93.34
2022-10-17T02:55:15.117Z,94.05
2022-10-17T02:58:01.086Z,93.63
2022-10-17T03:00:29.044Z,93.09
2022-10-17T03:02:56.024Z,93.25
2022-10-17T03:05:25.137Z,93.55
2022-10-17T03:07:52.489Z,92.79
2022-10-17T03:10:19.810Z,92.81
2022-10-17T03:12:46.432Z,93.02
2022-10-17T03:15:13.924Z,92.92
2022-10-17T03:17:40.923Z,93.06
2022-10-17T03:20:07.910Z,92.81
2022-10-17T03:22:34.790Z,92.75
2022-10-17T03:25:01.608Z,92.39
2022-10-17T03:27:28.438Z,92.70
2022-10-17T03:29:55.269Z,92.99
2022-10-17T03:32:21.905Z,92.99
2022-10-17T03:34:48.540Z,92.19
2022-10-17T03:37:15.204Z,92.87
2022-10-17T03:39:41.828Z,93.33
2022-10-17T03:42:08.444Z,94.01
2022-10-17T03:44:35.061Z,94.18
2022-10-17T03:47:03.732Z,94.18
2022-10-17T03:49:30.360Z,93.81
2022-10-17T03:51:57.019Z,93.25
2022-10-17T03:54:23.640Z,93.03
2022-10-17T03:56:50.296Z,92.67
2022-10-17T03:59:17.147Z,92.41
2022-10-17T04:01:44.152Z,92.85
2022-10-17T04:04:10.768Z,92.90
2022-10-17T04:06:37.671Z,93.16
2022-10-17T04:09:05.439Z,93.73
2022-10-17T04:11:32.126Z,93.75
2022-10-17T04:13:59.785Z,94.39
2022-10-17T04:16:27.267Z,94.39
2022-10-17T04:18:55.940Z,94.20
2022-10-17T04:21:24.687Z,93.91
2022-10-17T04:24:00.650Z,93.50
2022-10-17T04:26:28.028Z,93.79
2022-10-17T04:28:54.694Z,93.73
2022-10-17T04:31:21.595Z,93.61
2022-10-17T04:33:49.066Z,93.17
2022-10-17T04:36:18.305Z,92.73
2022-10-17T04:38:45.423Z,93.39
2022-10-17T04:41:17.296Z,94.14
2022-10-17T04:43:46.969Z,94.12
2022-10-17T04:46:16.966Z,93.97
2022-10-17T04:48:43.598Z,93.94
2022-10-17T04:51:16.404Z,93.81
2022-10-17T04:53:43.877Z,93.03
2022-10-17T04:56:11.463Z,93.59
2022-10-17T04:58:38.569Z,93.35
2022-10-17T05:01:09.207Z,93.13
2022-10-17T05:03:36.343Z,92.94
2022-10-17T05:06:24.215Z,93.01
2022-10-17T05:08:50.996Z,93.06
2022-10-17T05:11:21.531Z,93.12
2022-10-17T05:14:00.638Z,93.76
2022-10-17T05:16:28.405Z,93.30
2022-10-17T05:18:56.724Z,93.36
2022-10-17T05:21:25.231Z,93.10
2022-10-17T05:23:52.433Z,93.45
2022-10-17T05:26:19.489Z,93.49
2022-10-17T05:28:46.215Z,93.59
2022-10-17T05:31:13.343Z,93.21
2022-10-17T05:33:40.299Z,93.50
2022-10-17T05:36:07.592Z,92.92
2022-10-17T05:38:34.880Z,93.46
2022-10-17T05:41:04.094Z,93.68
2022-10-17T05:43:31.052Z,93.74
2022-10-17T05:45:57.765Z,94.15
2022-10-17T05:48:24.491Z,94.69
2022-10-17T05:50:58.070Z,94.18
2022-10-17T05:53:24.685Z,94.11
2022-10-17T05:55:59.133Z,94.35
2022-10-17T05:58:45.473Z,94.58
2022-10-17T06:01:13.381Z,94.39
2022-10-17T06:03:40.101Z,94.42
2022-10-17T06:06:09.220Z,94.67
2022-10-17T06:08:35.932Z,94.79
2022-10-17T06:11:06.058Z,94.44
2022-10-17T06:13:35.783Z,94.88
2022-10-17T06:16:02.433Z,95.29
2022-10-17T06:18:29.293Z,95.22
2022-10-17T06:21:02.776Z,95.17
2022-10-17T06:23:29.415Z,95.25
2022-10-17T06:26:03.896Z,95.20
2022-10-17T06:28:30.862Z,94.80
2022-10-17T06:30:57.760Z,95.58
2022-10-17T06:33:24.422Z,95.45
2022-10-17T06:35:52.718Z,95.35
2022-10-17T06:38:19.340Z,95.30
2022-10-17T06:40:46.069Z,95.62
2022-10-17T06:43:12.728Z,96.04
2022-10-17T06:45:40.203Z,95.82
2022-10-17T06:48:07.100Z,95.70
2022-10-17T06:50:34.253Z,95.45
2022-10-17T06:53:00.865Z,95.43
2022-10-17T06:55:27.500Z,95.64
2022-10-17T06:57:56.801Z,95.57
2022-10-17T07:00:23.686Z,95.53
2022-10-17T07:02:50.327Z,96.21
2022-10-17T07:05:17.420Z,96.20
2022-10-17T07:07:45.532Z,96.60
2022-10-17T07:10:14.064Z,96.61
2022-10-17T07:12:40.720Z,96.94
2022-10-17T07:15:08.114Z,96.96
2022-10-17T07:17:34.745Z,97.20
2022-10-17T07:20:01.357Z,97.07
2022-10-17T07:22:28.083Z,97.00
2022-10-17T07:24:54.749Z,97.83
2022-10-17T07:27:21.421Z,98.47
2022-10-17T07:29:48.133Z,99.38
2022-10-17T07:32:14.978Z,100.00
2022-10-17T07:34:41.654Z,100.00
2022-10-17T07:37:09.992Z,100.00
2022-10-17T07:39:36.757Z,100.00
2022-10-17T07:42:03.722Z,100.00
2022-10-17T07:44:30.333Z,100.00
2022-10-17T07:46:57.228Z,100.00
2022-10-17T07:49:24.007Z,100.00
2022-10-17T07:51:50.946Z,100.00
2022-10-17T07:54:17.601Z,100.00
2022-10-17T07:56:44.306Z,100.00
2022-10-17T07:59:10.922Z,100.00
2022-10-17T08:01:38.031Z,100.00
2022-10-17T08:04:04.642Z,100.00
2022-10-17T08:06:31.274Z,100.00
2022-10-17T08:08:58.596Z,100.00
2022-10-17T08:11:25.630Z,100.00
2022-10-17T08:13:52.370Z,100.00
2022-10-17T08:16:19.232Z,100.00
2022-10-17T08:18:45.905Z,100.00
2022-10-17T08:21:13.527Z,100.00
2022-10-17T08:23:40.414Z,100.00
2022-10-17T08:26:10.727Z,99.98
2022-10-17T08:28:39.256Z,99.53
2022-10-17T08:31:09.148Z,98.80
2022-10-17T08:33:35.814Z,99.40
2022-10-17T08:36:03.218Z,98.93
2022-10-17T08:38:34.699Z,98.71
2022-10-17T08:41:05.934Z,97.85
2022-10-17T08:44:03.693Z,97.54
2022-10-17T08:46:33.013Z,97.42
2022-10-17T08:49:00.198Z,97.02
2022-10-17T08:51:33.410Z,96.09
2022-10-17T08:54:24.553Z,95.79
2022-10-17T08:56:53.744Z,95.92
2022-10-17T08:59:26.007Z,95.72
2022-10-17T09:02:10.933Z,95.96
2022-10-17T09:05:08.481Z,95.75
2022-10-17T09:08:02.792Z,95.28
2022-10-17T09:10:50.670Z,94.25
2022-10-17T09:13:45.604Z,93.35
2022-10-17T09:16:21.356Z,94.36
2022-10-17T09:18:57.895Z,94.77
2022-10-17T09:21:41.888Z,94.68
2022-10-17T09:24:18.457Z,94.67
2022-10-17T09:26:46.802Z,94.85
2022-10-17T09:29:22.529Z,92.74
2022-10-17T09:34:42.605Z,89.93
2022-10-17T09:37:16.574Z,87.54
2022-10-17T09:39:44.055Z,86.95
2022-10-17T09:42:14.003Z,88.01
2022-10-17T09:45:24.832Z,86.80
2022-10-17T09:48:13.481Z,85.92
2022-10-17T09:50:40.314Z,85.35
2022-10-17T09:53:13.636Z,85.04
2022-10-17T09:55:48.364Z,82.17
2022-10-17T09:58:15.204Z,81.80
2022-10-17T10:00:44.737Z,82.37
2022-10-17T10:03:17.365Z,78.82
2022-10-17T10:06:03.070Z,74.78
2022-10-17T10:08:35.255Z,73.05
2022-10-17T10:11:05.765Z,70.64
2022-10-17T10:13:33.902Z,69.06
2022-10-17T10:16:13.786Z,68.37
2022-10-17T10:18:41.505Z,66.89
2022-10-17T10:21:13.822Z,65.94
2022-10-17T10:23:45.644Z,66.98
2022-10-17T10:26:22.384Z,66.22
2022-10-17T10:29:31.055Z,66.81
2022-10-17T10:32:19.286Z,65.68
2022-10-17T10:35:03.953Z,64.29
2022-10-17T10:37:44.479Z,62.56
2022-10-17T10:40:29.202Z,62.70
2022-10-17T10:43:02.626Z,62.23
2022-10-17T10:45:53.051Z,60.77
2022-10-17T10:48:21.794Z,60.60
2022-10-17T10:50:51.981Z,60.74
2022-10-17T10:53:35.442Z,59.48
2022-10-17T10:56:15.414Z,58.47
2022-10-17T10:59:09.289Z,58.86
2022-10-17T11:01:49.289Z,58.59
2022-10-17T11:04:46.474Z,58.16
2022-10-17T11:07:26.717Z,58.77
2022-10-17T11:09:54.854Z,58.39
2022-10-17T11:12:35.394Z,58.21
2022-10-17T11:15:18.819Z,58.17
2022-10-17T11:18:02.774Z,58.93
2022-10-17T11:20:41.183Z,56.80
2022-10-17T11:23:33.053Z,56.71
2022-10-17T11:26:04.073Z,56.45
2022-10-17T11:28:30.957Z,54.93
2022-10-17T11:31:03.410Z,52.83
2022-10-17T11:33:44.903Z,52.85
2022-10-17T11:36:12.721Z,51.99
2022-10-17T11:38:45.170Z,51.96
2022-10-17T11:41:16.473Z,51.05
2022-10-17T11:43:48.320Z,50.94
2022-10-17T11:46:36.062Z,51.00
2022-10-17T11:49:10.479Z,50.68
2022-10-17T11:52:01.488Z,50.40
2022-10-17T11:54:34.174Z,50.55
2022-10-17T11:57:18.552Z,50.17
2022-10-17T11:59:51.100Z,50.11
2022-10-17T12:02:37.027Z,49.78
2022-10-17T12:05:12.318Z,49.60
2022-10-17T12:08:05.245Z,49.05
2022-10-17T12:10:31.968Z,49.19
2022-10-17T12:13:27.824Z,48.49
2022-10-17T12:15:58.920Z,48.82
2022-10-17T12:18:27.502Z,47.94
2022-10-17T12:20:58.041Z,47.90
2022-10-17T12:23:28.878Z,47.73
2022-10-17T12:26:03.254Z,47.31
2022-10-17T12:28:31.744Z,46.92
2022-10-17T12:31:05.982Z,46.55
2022-10-17T12:33:49.208Z,46.28
2022-10-17T12:36:18.974Z,46.10
2022-10-17T12:38:50.446Z,44.46
2022-10-17T12:41:37.911Z,45.07
2022-10-17T12:44:13.945Z,44.47
2022-10-17T12:46:47.198Z,44.82
2022-10-17T12:49:40.362Z,44.41
2022-10-17T12:52:22.862Z,44.86
2022-10-17T12:55:23.934Z,44.26
2022-10-17T12:58:08.254Z,45.02
2022-10-17T13:00:59.484Z,44.71
2022-10-17T13:03:33.299Z,43.62
2022-10-17T13:06:03.760Z,43.80
2022-10-17T13:08:33.678Z,44.05
2022-10-17T13:11:00.741Z,44.22
2022-10-17T13:13:48.783Z,43.70
2022-10-17T13:16:32.425Z,42.84
2022-10-17T13:19:16.527Z,42.99
2022-10-17T13:22:06.088Z,41.78
2022-10-17T13:24:39.246Z,41.70
2022-10-17T13:27:21.221Z,41.14
2022-10-17T13:29:47.866Z,41.89
2022-10-17T13:32:14.496Z,41.82
2022-10-17T13:34:41.160Z,41.30
2022-10-17T13:37:11.573Z,41.10
2022-10-17T13:40:00.365Z,40.82
2022-10-17T13:42:40.976Z,40.86
2022-10-17T13:45:26.342Z,40.99
2022-10-17T13:47:53.215Z,40.16
2022-10-17T13:50:44.219Z,40.25
2022-10-17T13:53:32.529Z,40.61
2022-10-17T13:56:26.290Z,40.37
2022-10-17T13:58:54.087Z,40.69
2022-10-17T14:01:21.497Z,40.61
2022-10-17T14:03:51.796Z,39.50
2022-10-17T14:06:27.621Z,39.85
2022-10-17T14:08:57.036Z,40.19
2022-10-17T14:11:30.137Z,39.58
2022-10-17T14:14:00.093Z,39.46
2022-10-17T14:16:28.301Z,40.01
2022-10-17T14:18:55.670Z,39.11
2022-10-17T14:21:43.468Z,39.68
2022-10-17T14:24:21.267Z,40.21
2022-10-17T14:26:49.945Z,41.10
2022-10-17T14:29:51.500Z,40.90
2022-10-17T14:32:18.719Z,40.66
2022-10-17T14:34:46.693Z,39.76
2022-10-17T14:37:51.449Z,37.95
2022-10-17T14:40:20.296Z,36.77
2022-10-17T14:42:48.406Z,36.20
2022-10-17T14:45:25.499Z,36.82
2022-10-17T14:47:53.637Z,35.66
2022-10-17T14:50:23.986Z,35.05
2022-10-17T14:53:05.858Z,34.13
2022-10-17T14:55:34.987Z,34.23
2022-10-17T14:58:02.188Z,34.91
2022-10-17T15:00:28.969Z,35.02
2022-10-17T15:02:56.356Z,34.16
2022-10-17T15:05:23.545Z,35.21
2022-10-17T15:07:50.220Z,36.02
2022-10-17T15:10:26.566Z,34.72
2022-10-17T15:12:59.275Z,33.44
2022-10-17T15:15:31.884Z,34.78
2022-10-17T15:17:59.196Z,34.43
2022-10-17T15:20:29.536Z,34.87
2022-10-17T15:23:00.569Z,35.58
2022-10-17T15:25:28.526Z,35.84
2022-10-17T15:27:55.677Z,35.19
2022-10-17T15:30:24.750Z,35.80
2022-10-17T15:32:52.265Z,36.78
2022-10-17T15:35:19.393Z,37.95
2022-10-17T15:37:46.953Z,40.07
2022-10-17T15:40:16.397Z,39.95
2022-10-17T15:42:43.464Z,40.89
2022-10-17T15:45:12.277Z,41.03
2022-10-17T15:47:39.026Z,42.85
2022-10-17T15:50:08.810Z,44.17
2022-10-17T15:52:35.956Z,45.10
2022-10-17T15:55:05.254Z,46.13
2022-10-17T15:57:37.998Z,46.89
2022-10-17T16:00:06.883Z,46.87
2022-10-17T16:02:34.277Z,47.79
2022-10-17T16:05:01.016Z,48.90
2022-10-17T16:07:27.742Z,48.58
2022-10-17T16:09:54.538Z,49.73
2022-10-17T16:12:28.023Z,50.13
2022-10-17T16:14:55.095Z,50.35
2022-10-17T16:17:21.713Z,50.27
2022-10-17T16:19:48.378Z,50.77
2022-10-17T16:22:32.434Z,51.69
2022-10-17T16:25:07.617Z,52.46
2022-10-17T16:27:34.491Z,53.01
2022-10-17T16:30:01.166Z,53.63
2022-10-17T16:32:28.207Z,54.57
2022-10-17T16:34:55.141Z,54.60
2022-10-17T16:37:21.807Z,55.04
2022-10-17T16:39:52.571Z,56.08
2022-10-17T16:42:20.782Z,56.62
2022-10-17T16:44:51.321Z,57.51
2022-10-17T16:47:18.669Z,58.40
2022-10-17T16:49:45.710Z,58.92
2022-10-17T16:52:12.771Z,60.39
2022-10-17T16:54:39.415Z,61.48
2022-10-17T16:57:06.058Z,62.52
2022-10-17T16:59:32.680Z,62.75
2022-10-17T17:01:59.300Z,62.98
2022-10-17T17:04:25.965Z,62.59
2022-10-17T17:06:53.676Z,62.67
2022-10-17T17:09:20.407Z,63.65
2022-10-17T17:11:47.134Z,63.84
2022-10-17T17:14:13.816Z,65.36
2022-10-17T17:16:40.639Z,66.39
2022-10-17T17:19:10.054Z,67.12
2022-10-17T17:21:36.858Z,67.76
2022-10-17T17:24:04.235Z,68.49
2022-10-17T17:26:37.589Z,68.95
2022-10-17T17:29:04.603Z,68.27
2022-10-17T17:31:33.285Z,68.44
2022-10-17T17:34:05.883Z,70.20
2022-10-17T17:36:34.482Z,69.70
2022-10-17T17:39:04.171Z,69.10
2022-10-17T17:41:31.557Z,69.23
2022-10-17T17:44:01.659Z,70.48
2022-10-17T17:46:28.580Z,70.69
2022-10-17T17:48:55.698Z,71.45
2022-10-17T17:51:34.791Z,72.94
2022-10-17T17:54:01.406Z,74.12
2022-10-17T17:56:29.447Z,73.50
2022-10-17T17:59:01.143Z,73.49
2022-10-17T18:01:31.859Z,73.59
2022-10-17T18:03:59.225Z,74.96
2022-10-17T18:06:27.658Z,75.21
2022-10-17T18:08:59.204Z,74.16
2022-10-17T18:11:27.307Z,73.96
2022-10-17T18:13:59.346Z,74.55
2022-10-17T18:16:27.022Z,75.58
2022-10-17T18:18:53.933Z,76.48
2022-10-17T18:21:20.943Z,76.55
2022-10-17T18:23:48.873Z,76.43
2022-10-17T18:26:17.868Z,76.13
2022-10-17T18:28:45.027Z,76.13
2022-10-17T18:31:28.511Z,75.81
2022-10-17T18:33:58.283Z,75.83
2022-10-17T18:36:26.289Z,75.84
2022-10-17T18:38:54.061Z,76.99
2022-10-17T18:41:22.646Z,77.96
2022-10-17T18:43:50.375Z,79.32
2022-10-17T18:46:19.561Z,79.65
2022-10-17T18:48:47.291Z,79.37
2022-10-17T18:51:15.958Z,79.35
2022-10-17T18:53:44.844Z,79.48
2022-10-17T18:56:12.160Z,78.58
2022-10-17T18:58:39.661Z,78.19
2022-10-17T19:01:10.439Z,78.57
2022-10-17T19:03:38.293Z,78.75
2022-10-17T19:06:08.041Z,78.73
2022-10-17T19:08:36.808Z,78.93
2022-10-17T19:11:13.345Z,78.88
2022-10-17T19:13:40.308Z,79.40
2022-10-17T19:16:12.956Z,79.71
2022-10-17T19:19:07.799Z,80.41
2022-10-17T19:21:34.827Z,80.42
2022-10-17T19:24:04.059Z,80.43
2022-10-17T19:26:35.570Z,80.66
2022-10-17T19:29:02.738Z,81.64
2022-10-17T19:31:36.024Z,81.15
2022-10-17T19:34:10.229Z,80.66
2022-10-17T19:36:37.188Z,81.48
2022-10-17T19:39:07.599Z,81.91
2022-10-17T19:41:36.129Z,82.26
2022-10-17T19:44:02.809Z,82.19
2022-10-17T19:46:32.257Z,82.80
2022-10-17T19:48:58.901Z,82.56
2022-10-17T19:51:26.430Z,82.04
2022-10-17T19:53:55.177Z,81.85
2022-10-17T19:56:23.044Z,82.02
2022-10-17T19:58:50.544Z,81.89
2022-10-17T20:01:23.086Z,82.56
2022-10-17T20:03:50.299Z,83.45
2022-10-17T20:06:18.600Z,82.53
2022-10-17T20:08:46.264Z,82.51
2022-10-17T20:11:15.961Z,82.24
2022-10-17T20:13:45.036Z,83.40
2022-10-17T20:16:14.494Z,84.37
2022-10-17T20:18:42.794Z,84.82
2022-10-17T20:21:12.718Z,84.92
2022-10-17T20:23:39.909Z,84.40
2022-10-17T20:26:36.581Z,83.96
2022-10-17T20:29:01.382Z,84.23
2022-10-17T20:31:28.528Z,85.05
2022-10-17T20:33:59.314Z,83.90
2022-10-17T20:36:26.380Z,83.49
2022-10-17T20:38:57.081Z,83.84
2022-10-17T20:41:24.325Z,84.96
2022-10-17T20:43:52.919Z,84.75
2022-10-17T20:46:36.364Z,84.54
2022-10-17T20:49:05.444Z,84.71
2022-10-17T20:51:32.609Z,85.60
2022-10-17T20:53:59.309Z,84.99
2022-10-17T20:56:28.658Z,84.56
2022-10-17T20:58:58.258Z,84.86
2022-10-17T21:01:26.156Z,85.61
2022-10-17T21:03:53.192Z,85.59
2022-10-17T21:06:20.047Z,86.27
2022-10-17T21:08:47.477Z,86.45
2022-10-17T21:11:16.588Z,86.65
2022-10-17T21:13:43.589Z,86.62
2022-10-17T21:16:12.769Z,86.39
2022-10-17T21:18:39.877Z,86.04
2022-10-17T21:21:08.619Z,85.55
2022-10-17T21:23:35.417Z,85.65
2022-10-17T21:26:02.072Z,85.14
2022-10-17T21:28:28.775Z,85.20
2022-10-17T21:30:55.533Z,86.42
2022-10-17T21:33:22.142Z,87.55
2022-10-17T21:35:48.789Z,87.35
2022-10-17T21:38:15.391Z,86.76
2022-10-17T21:40:46.700Z,86.57
2022-10-17T21:43:14.300Z,86.43
2022-10-17T21:45:40.929Z,86.39
2022-10-17T21:48:14.750Z,86.51
2022-10-17T21:50:42.472Z,86.46
2022-10-17T21:53:09.177Z,86.44
2022-10-17T21:55:37.533Z,86.92
2022-10-17T21:58:04.444Z,87.74
2022-10-17T22:00:31.171Z,87.85
2022-10-17T22:02:57.773Z,87.63
2022-10-17T22:05:24.433Z,87.77
2022-10-17T22:07:51.070Z,87.46
2022-10-17T22:10:18.735Z,87.83
2022-10-17T22:12:45.396Z,88.02
2022-10-17T22:17:59.597Z,87.66
2022-10-17T22:20:26.251Z,87.22
2022-10-17T22:22:52.932Z,87.52
2022-10-17T22:25:19.590Z,88.26
2022-10-17T22:27:47.028Z,89.50
2022-10-17T22:30:13.644Z,89.18
2022-10-17T22:32:40.266Z,88.84
2022-10-17T22:35:07.608Z,88.44
2022-10-17T22:37:34.239Z,87.82
2022-10-17T22:40:02.302Z,87.79
2022-10-17T22:42:31.729Z,87.91
2022-10-17T22:44:58.495Z,87.84
2022-10-17T22:47:25.138Z,88.30
2022-10-17T22:49:51.808Z,87.94
2022-10-17T22:52:18.416Z,87.84
2022-10-17T22:54:46.073Z,87.76
2022-10-17T22:57:13.166Z,87.57
2022-10-17T22:59:39.790Z,88.11
2022-10-17T23:02:06.672Z,87.75
2022-10-17T23:04:33.327Z,88.17
2022-10-17T23:06:59.966Z,88.07
2022-10-17T23:11:54.270Z,89.30
2022-10-17T23:14:21.889Z,90.19
2022-10-17T23:16:48.540Z,91.25
2022-10-17T23:19:15.174Z,90.58
2022-10-17T23:21:41.890Z,90.95
2022-10-17T23:24:09.477Z,90.87
2022-10-17T23:26:36.269Z,89.99
2022-10-17T23:29:02.960Z,90.16
2022-10-17T23:31:29.637Z,90.82
2022-10-17T23:34:01.918Z,91.06
2022-10-17T23:36:28.583Z,90.56
2022-10-17T23:38:57.875Z,90.29
2022-10-17T23:41:25.404Z,89.76
2022-10-17T23:43:52.048Z,89.18
2022-10-17T23:46:18.699Z,89.41
2022-10-17T23:48:45.341Z,89.25
2022-10-17T23:51:12.037Z,89.62
2022-10-17T23:53:39.757Z,89.14
2022-10-17T23:56:07.950Z,88.92
2022-10-17T23:58:34.922Z,88.88
